Time;durP1;ratioP1;P1;durP2;ratioP2;P2;SDS_P1;SDS_P2;PMS_P1;PMS_P2;Temp;Humidity;BMP_temperature;BMP_pressure;BME280_temperature;BME280_humidity;BME280_pressure;Samples;Min_cycle;Max_cycle;Signal;HPM_P1;HPM_P2
2021/10/15 00:01:02;;;;;;;11.18;7.18;;;13.20;99.90;;;;;;6218122;23;20000;-88
2021/10/15 00:03:31;;;;;;;10.27;6.07;;;13.20;99.90;;;;;;6218065;23;20000;-88
2021/10/15 00:05:57;;;;;;;9.30;6.88;;;13.20;99.90;;;;;;6243819;23;20011;-87
2021/10/15 00:08:23;;;;;;;11.57;7.63;;;13.10;99.90;;;;;;6218447;23;20004;-88
2021/10/15 00:10:49;;;;;;;12.75;6.72;;;13.10;99.90;;;;;;6218414;23;20101;-87
2021/10/15 00:13:16;;;;;;;9.40;6.57;;;13.10;99.90;;;;;;6218650;23;20027;-87
2021/10/15 00:15:42;;;;;;;9.60;7.60;;;13.00;99.90;;;;;;6218505;23;20408;-88
2021/10/15 00:18:08;;;;;;;10.45;6.68;;;13.00;99.90;;;;;;6218565;23;20032;-88
2021/10/15 00:20:37;;;;;;;12.18;7.00;;;13.00;99.90;;;;;;6217842;23;20008;-88
2021/10/15 00:23:03;;;;;;;9.68;6.93;;;13.00;99.90;;;;;;6242969;23;20012;-88
2021/10/15 00:25:29;;;;;;;11.73;7.63;;;13.10;99.90;;;;;;6217553;23;20008;-87
2021/10/15 00:27:57;;;;;;;11.38;6.88;;;13.00;99.90;;;;;;6218294;23;20515;-87
2021/10/15 00:30:23;;;;;;;12.23;7.95;;;13.10;99.90;;;;;;6217875;23;20039;-87
2021/10/15 00:32:51;;;;;;;12.63;7.50;;;13.00;99.90;;;;;;6218545;23;20011;-88
2021/10/15 00:35:20;;;;;;;11.52;8.60;;;13.00;99.90;;;;;;6191979;23;20008;-88
2021/10/15 00:37:48;;;;;;;11.60;7.68;;;13.00;99.90;;;;;;6214886;23;20035;-86
2021/10/15 00:40:15;;;;;;;9.93;7.40;;;13.00;99.90;;;;;;6215014;23;20000;-88
2021/10/15 00:42:41;;;;;;;8.00;6.10;;;13.00;99.90;;;;;;6213944;23;20011;-89
2021/10/15 00:45:07;;;;;;;11.15;7.35;;;13.00;99.90;;;;;;6214388;23;20000;-88
2021/10/15 00:47:33;;;;;;;8.00;6.60;;;13.00;99.90;;;;;;6214529;23;20103;-89
2021/10/15 00:49:59;;;;;;;7.90;6.00;;;13.00;99.90;;;;;;6214744;23;20028;-90
2021/10/15 00:52:24;;;;;;;9.32;6.68;;;13.00;99.90;;;;;;6189204;23;20069;-88
2021/10/15 00:54:52;;;;;;;9.88;6.93;;;13.00;99.90;;;;;;6241007;23;20067;-89
2021/10/15 00:57:18;;;;;;;10.93;8.32;;;13.00;99.90;;;;;;6215083;23;20004;-89
2021/10/15 00:59:43;;;;;;;9.68;6.88;;;12.90;99.90;;;;;;6215066;23;20073;-89
2021/10/15 01:02:09;;;;;;;8.45;6.82;;;12.90;99.90;;;;;;6215662;23;20031;-89
2021/10/15 01:04:36;;;;;;;9.68;7.20;;;12.90;99.90;;;;;;6190427;23;20031;-88
2021/10/15 01:07:03;;;;;;;10.07;7.05;;;12.90;99.90;;;;;;6215783;23;20038;-89
2021/10/15 01:09:30;;;;;;;12.13;7.82;;;12.90;99.90;;;;;;6217253;23;20321;-89
2021/10/15 01:11:57;;;;;;;8.93;6.13;;;12.90;99.90;;;;;;6219940;23;20001;-89
2021/10/15 01:14:23;;;;;;;8.63;6.65;;;12.90;99.90;;;;;;6221222;23;20404;-88
2021/10/15 01:16:49;;;;;;;10.50;7.35;;;12.90;99.90;;;;;;6244343;23;20108;-89
2021/10/15 01:19:15;;;;;;;9.93;7.03;;;12.90;99.90;;;;;;6195232;23;20147;-88
2021/10/15 01:21:41;;;;;;;7.78;6.03;;;12.90;99.90;;;;;;6219414;23;20000;-88
2021/10/15 01:24:07;;;;;;;9.73;7.22;;;12.90;99.90;;;;;;6220099;23;20331;-89
2021/10/15 01:26:32;;;;;;;9.48;7.05;;;12.90;99.90;;;;;;6195661;23;20020;-89
2021/10/15 01:28:59;;;;;;;8.70;6.85;;;12.90;99.90;;;;;;6220854;23;19996;-89
2021/10/15 01:31:26;;;;;;;10.55;8.15;;;12.90;99.90;;;;;;6220296;23;20065;-88
2021/10/15 01:33:56;;;;;;;8.35;6.57;;;12.90;99.90;;;;;;6220581;23;19996;-88
2021/10/15 01:36:23;;;;;;;10.77;7.40;;;12.90;99.90;;;;;;6219758;23;20004;-89
2021/10/15 01:38:49;;;;;;;10.43;7.43;;;12.90;99.90;;;;;;6246521;23;20125;-88
2021/10/15 01:41:15;;;;;;;9.75;7.45;;;12.90;99.90;;;;;;6220777;23;20550;-88
2021/10/15 01:43:40;;;;;;;10.57;7.55;;;12.90;99.90;;;;;;6220186;23;19996;-88
2021/10/15 01:46:06;;;;;;;11.23;8.30;;;12.90;99.90;;;;;;6219984;23;19996;-88
2021/10/15 01:48:33;;;;;;;12.38;9.18;;;13.00;99.90;;;;;;6219625;23;20004;-89
2021/10/15 01:51:00;;;;;;;11.50;8.52;;;12.90;99.90;;;;;;6220741;23;20004;-88
2021/10/15 01:53:27;;;;;;;10.30;8.10;;;12.90;99.90;;;;;;6220454;23;20004;-88
2021/10/15 01:55:53;;;;;;;14.80;9.07;;;12.90;99.90;;;;;;6220577;23;20073;-88
2021/10/15 01:58:19;;;;;;;11.57;8.60;;;12.90;99.90;;;;;;6220604;23;20285;-88
2021/10/15 02:00:47;;;;;;;10.82;7.85;;;12.90;99.90;;;;;;6220051;23;20032;-88
2021/10/15 02:03:13;;;;;;;11.55;8.27;;;12.90;99.90;;;;;;6220740;23;20083;-88
2021/10/15 02:05:39;;;;;;;12.15;8.20;;;12.90;99.90;;;;;;6220739;23;19993;-88
2021/10/15 02:08:05;;;;;;;12.93;9.38;;;12.90;99.90;;;;;;6220638;23;20181;-88
2021/10/15 02:10:31;;;;;;;10.18;7.82;;;12.90;99.90;;;;;;6220697;23;20003;-88
2021/10/15 02:12:57;;;;;;;14.05;9.98;;;12.90;99.90;;;;;;6220663;23;20455;-89
2021/10/15 02:15:23;;;;;;;10.90;8.80;;;12.90;99.90;;;;;;6220594;23;20075;-88
2021/10/15 02:17:50;;;;;;;11.15;8.77;;;12.90;99.90;;;;;;6247197;23;20024;-89
2021/10/15 02:20:18;;;;;;;12.85;8.27;;;12.90;99.90;;;;;;6195262;23;20019;-89
2021/10/15 02:22:46;;;;;;;11.95;7.63;;;12.90;99.90;;;;;;6247548;23;20019;-89
2021/10/15 02:25:13;;;;;;;12.13;7.90;;;12.90;99.90;;;;;;6220742;23;20043;-88
2021/10/15 02:27:39;;;;;;;10.43;7.40;;;12.90;99.90;;;;;;6220407;23;19993;-88
2021/10/15 02:30:08;;;;;;;11.15;7.70;;;12.90;99.90;;;;;;6219009;23;20000;-88
2021/10/15 02:32:34;;;;;;;11.65;9.13;;;12.90;99.90;;;;;;6218798;23;20007;-88
2021/10/15 02:35:00;;;;;;;11.82;8.80;;;12.90;99.90;;;;;;6220623;23;20023;-87
2021/10/15 02:37:26;;;;;;;11.30;8.32;;;12.80;99.90;;;;;;6220247;23;20405;-87
2021/10/15 02:39:51;;;;;;;11.07;8.85;;;12.80;99.90;;;;;;6220363;23;20007;-87
2021/10/15 02:42:18;;;;;;;13.00;9.90;;;12.80;99.90;;;;;;6220487;23;20313;-87
2021/10/15 02:44:44;;;;;;;13.32;8.75;;;12.80;99.90;;;;;;6195688;23;20001;-87
2021/10/15 02:47:10;;;;;;;11.05;8.68;;;12.80;99.90;;;;;;6219635;23;19996;-88
2021/10/15 02:49:36;;;;;;;11.15;8.43;;;12.80;99.90;;;;;;6220457;23;20023;-87
2021/10/15 02:52:02;;;;;;;12.07;8.85;;;12.80;99.90;;;;;;6219604;23;20436;-87
2021/10/15 02:54:29;;;;;;;13.50;9.65;;;12.80;99.90;;;;;;6220088;23;19992;-87
2021/10/15 02:56:55;;;;;;;11.20;9.38;;;12.80;99.90;;;;;;6246916;23;20050;-86
2021/10/15 02:59:20;;;;;;;10.18;8.38;;;12.80;99.90;;;;;;6220264;23;20000;-87
2021/10/15 03:01:47;;;;;;;14.23;10.52;;;12.70;99.90;;;;;;6246926;23;19996;-86
2021/10/15 03:04:13;;;;;;;11.27;8.95;;;12.70;99.90;;;;;;6220302;23;20030;-87
2021/10/15 03:06:39;;;;;;;13.40;9.45;;;12.70;99.90;;;;;;6194484;23;20369;-86
2021/10/15 03:09:05;;;;;;;13.77;9.82;;;12.80;99.90;;;;;;6219824;23;20011;-87
2021/10/15 03:11:31;;;;;;;14.73;10.02;;;12.70;99.90;;;;;;6219593;23;20028;-86
2021/10/15 03:13:58;;;;;;;14.70;9.48;;;12.70;99.90;;;;;;6220010;23;20004;-87
2021/10/15 03:16:25;;;;;;;14.45;9.13;;;12.70;99.90;;;;;;6220038;23;20000;-87
2021/10/15 03:18:50;;;;;;;11.85;7.90;;;12.80;99.90;;;;;;6220146;23;19996;-87
2021/10/15 03:21:16;;;;;;;12.00;8.25;;;12.70;99.90;;;;;;6220132;23;20007;-88
2021/10/15 03:23:42;;;;;;;11.38;8.07;;;12.80;99.90;;;;;;6194820;23;20008;-87
2021/10/15 03:26:07;;;;;;;12.63;8.77;;;12.70;99.90;;;;;;6220043;23;19997;-88
2021/10/15 03:28:33;;;;;;;15.05;10.23;;;12.70;99.90;;;;;;6220296;23;20000;-87
2021/10/15 03:30:59;;;;;;;14.52;10.35;;;12.70;99.90;;;;;;6219446;23;20129;-85
2021/10/15 03:33:24;;;;;;;13.73;10.07;;;12.70;99.90;;;;;;6246856;23;20000;-87
2021/10/15 03:35:50;;;;;;;12.70;10.18;;;12.70;99.90;;;;;;6219574;23;19996;-85
2021/10/15 03:38:16;;;;;;;13.13;9.52;;;12.70;99.90;;;;;;6246463;23;20004;-87
2021/10/15 03:40:42;;;;;;;13.55;9.15;;;12.70;99.90;;;;;;6219893;23;20006;-87
2021/10/15 03:43:08;;;;;;;12.75;9.90;;;12.70;99.90;;;;;;6220084;23;20066;-86
2021/10/15 03:45:33;;;;;;;11.63;8.73;;;12.70;99.90;;;;;;6220101;23;20401;-87
2021/10/15 03:47:59;;;;;;;11.25;8.65;;;12.70;99.90;;;;;;6194580;23;20004;-87
2021/10/15 03:50:25;;;;;;;13.50;9.27;;;12.70;99.90;;;;;;6219068;23;20326;-87
2021/10/15 03:52:50;;;;;;;13.18;9.70;;;12.70;99.90;;;;;;6219469;23;20320;-86
2021/10/15 03:55:16;;;;;;;11.35;8.32;;;12.70;99.90;;;;;;6219839;23;20297;-87
2021/10/15 03:57:45;;;;;;;14.50;9.65;;;12.70;99.90;;;;;;6220180;23;20411;-86
2021/10/15 04:00:12;;;;;;;10.65;8.45;;;12.70;99.90;;;;;;6219532;23;20053;-87
2021/10/15 04:02:39;;;;;;;13.27;9.15;;;12.70;99.90;;;;;;6219939;23;20035;-87
2021/10/15 04:05:06;;;;;;;13.45;8.80;;;12.70;99.90;;;;;;6219481;23;20311;-87
2021/10/15 04:07:32;;;;;;;11.65;9.38;;;12.70;99.90;;;;;;6219557;23;20001;-87
2021/10/15 04:09:58;;;;;;;11.45;8.48;;;12.70;99.90;;;;;;6219902;23;20087;-87
2021/10/15 04:12:23;;;;;;;11.25;9.18;;;12.70;99.90;;;;;;6194291;23;20008;-87
2021/10/15 04:14:49;;;;;;;11.48;8.77;;;12.70;99.90;;;;;;6219932;23;20007;-87
2021/10/15 04:17:16;;;;;;;11.70;9.85;;;12.70;99.90;;;;;;6219992;23;20024;-87
2021/10/15 04:19:43;;;;;;;13.38;9.25;;;12.70;99.90;;;;;;6221677;23;20008;-87
2021/10/15 04:22:10;;;;;;;13.20;9.63;;;12.60;99.90;;;;;;6173150;23;20418;-87
2021/10/15 04:24:40;;;;;;;13.38;10.05;;;12.60;99.90;;;;;;6170990;23;20013;-87
2021/10/15 04:27:06;;;;;;;14.32;10.30;;;12.60;99.90;;;;;;6191883;23;20004;-88
2021/10/15 04:29:33;;;;;;;14.48;10.30;;;12.60;99.90;;;;;;6218293;23;19997;-86
2021/10/15 04:31:59;;;;;;;18.52;12.07;;;12.70;99.90;;;;;;6217796;23;20366;-88
2021/10/15 04:34:25;;;;;;;14.20;11.38;;;12.60;99.90;;;;;;6165982;23;20036;-87
2021/10/15 04:36:51;;;;;;;15.32;10.43;;;12.60;99.90;;;;;;6191111;23;20071;-87
2021/10/15 04:39:18;;;;;;;17.15;11.07;;;12.70;99.90;;;;;;6191357;23;19997;-87
2021/10/15 04:41:43;;;;;;;15.10;10.93;;;12.70;99.90;;;;;;6191674;23;20023;-87
2021/10/15 04:44:09;;;;;;;14.48;10.45;;;12.70;99.90;;;;;;6166359;23;20305;-88
2021/10/15 04:46:35;;;;;;;13.90;10.23;;;12.80;99.90;;;;;;6191663;23;20353;-88
2021/10/15 04:49:01;;;;;;;13.73;10.57;;;12.80;99.90;;;;;;6166692;23;20007;-89
2021/10/15 04:51:28;;;;;;;16.70;11.63;;;12.80;99.90;;;;;;6191129;23;20001;-88
2021/10/15 04:53:55;;;;;;;16.67;12.07;;;12.80;99.90;;;;;;6166473;23;20316;-88
2021/10/15 04:56:20;;;;;;;15.80;12.35;;;12.80;99.90;;;;;;6190556;23;20000;-88
2021/10/15 04:58:47;;;;;;;14.25;10.70;;;12.80;99.90;;;;;;6166422;23;20024;-88
2021/10/15 05:01:17;;;;;;;16.13;11.68;;;12.80;99.90;;;;;;6191153;23;20052;-88
2021/10/15 05:03:42;;;;;;;16.48;11.60;;;12.80;99.90;;;;;;6217633;23;20050;-87
2021/10/15 05:06:08;;;;;;;18.05;11.43;;;12.80;99.90;;;;;;6191224;23;20000;-87
2021/10/15 05:08:43;;;;;;;16.02;11.20;;;12.80;99.90;;;;;;6191321;23;19997;-87
2021/10/15 05:11:09;;;;;;;16.33;12.38;;;12.80;99.90;;;;;;6168278;23;20436;-89
2021/10/15 05:13:35;;;;;;;17.27;11.50;;;12.80;99.90;;;;;;6166268;23;20424;-87
2021/10/15 05:16:03;;;;;;;16.63;12.38;;;12.80;99.90;;;;;;6190951;23;20001;-87
2021/10/15 05:18:29;;;;;;;14.48;11.90;;;12.80;99.90;;;;;;6191666;23;20001;-87
2021/10/15 05:20:55;;;;;;;16.58;11.93;;;12.80;99.90;;;;;;6217122;23;20026;-88
2021/10/15 05:23:20;;;;;;;19.08;11.73;;;12.80;99.90;;;;;;6165703;23;20092;-88
2021/10/15 05:25:46;;;;;;;17.63;12.02;;;12.80;99.90;;;;;;6191176;23;19997;-88
2021/10/15 05:28:12;;;;;;;20.27;12.80;;;12.70;99.90;;;;;;6190738;23;20021;-87
2021/10/15 05:30:41;;;;;;;15.90;12.05;;;12.70;99.90;;;;;;6189666;23;20004;-87
2021/10/15 05:33:07;;;;;;;14.27;11.68;;;12.70;99.90;;;;;;6166757;23;20096;-88
2021/10/15 05:35:33;;;;;;;15.70;11.98;;;12.60;99.90;;;;;;6190769;23;20466;-88
2021/10/15 05:37:59;;;;;;;16.90;12.25;;;12.60;99.90;;;;;;6189950;23;20031;-87
2021/10/15 05:40:27;;;;;;;16.90;12.50;;;12.60;99.90;;;;;;6190510;23;20000;-88
2021/10/15 05:42:52;;;;;;;17.77;13.73;;;12.60;99.90;;;;;;6190446;23;20009;-88
2021/10/15 05:45:25;;;;;;;18.30;13.50;;;12.60;99.90;;;;;;6165212;23;20025;-88
2021/10/15 05:47:51;;;;;;;15.20;12.43;;;12.70;99.90;;;;;;6190689;23;20087;-88
2021/10/15 05:50:17;;;;;;;19.52;13.18;;;12.60;99.90;;;;;;6190885;23;20330;-87
2021/10/15 05:52:48;;;;;;;18.58;13.77;;;12.70;99.90;;;;;;6216867;23;20309;-88
2021/10/15 06:00:34;;;;;;;19.95;14.05;;;12.70;99.90;;;;;;6197383;23;20048;-87
2021/10/15 06:03:01;;;;;;;16.73;13.00;;;12.70;99.90;;;;;;6197187;23;20003;-88
2021/10/15 06:16:36;;;;;;;18.58;13.20;;;12.70;99.90;;;;;;6222834;23;20012;-88
2021/10/15 06:19:05;;;;;;;18.52;13.27;;;12.80;99.90;;;;;;6190565;23;20013;-87
2021/10/15 06:21:33;;;;;;;18.60;13.90;;;12.80;99.90;;;;;;6165750;23;20005;-88
2021/10/15 06:24:05;;;;;;;19.60;14.60;;;12.80;99.90;;;;;;6210431;23;20008;-88
2021/10/15 06:26:32;;;;;;;19.52;14.38;;;12.80;99.90;;;;;;6195137;23;20317;-88
2021/10/15 06:28:58;;;;;;;18.30;14.77;;;12.80;99.90;;;;;;6220739;23;20465;-88
2021/10/15 06:31:25;;;;;;;18.63;14.55;;;12.80;99.90;;;;;;6195537;23;20008;-87
2021/10/15 06:33:52;;;;;;;20.52;14.50;;;12.80;99.90;;;;;;6220879;23;20470;-88
2021/10/15 06:36:18;;;;;;;20.63;15.57;;;12.80;99.90;;;;;;6221424;23;20004;-88
2021/10/15 06:38:43;;;;;;;20.17;14.65;;;12.90;99.90;;;;;;6247170;23;20059;-88
2021/10/15 06:41:10;;;;;;;18.70;14.20;;;12.90;99.90;;;;;;6218718;23;20428;-89
2021/10/15 06:43:44;;;;;;;19.45;14.98;;;12.90;99.90;;;;;;6218526;23;20015;-88
2021/10/15 06:46:10;;;;;;;21.13;15.52;;;12.80;99.90;;;;;;6218308;23;20000;-88
2021/10/15 06:48:36;;;;;;;21.67;16.95;;;12.70;99.90;;;;;;6218531;23;20031;-87
2021/10/15 06:51:02;;;;;;;18.98;14.82;;;12.60;99.90;;;;;;6217448;23;20000;-87
2021/10/15 06:53:37;;;;;;;18.55;14.73;;;12.50;99.90;;;;;;6217948;23;20077;-86
2021/10/15 06:56:06;;;;;;;22.60;15.35;;;12.50;99.90;;;;;;6244122;23;20404;-87
2021/10/15 06:58:34;;;;;;;23.85;17.98;;;12.40;99.90;;;;;;6216895;23;20339;-88
2021/10/15 07:01:00;;;;;;;19.95;16.63;;;12.40;99.90;;;;;;6218087;23;20004;-89
2021/10/15 07:03:26;;;;;;;19.88;14.98;;;12.30;99.90;;;;;;6245084;23;20416;-89
2021/10/15 07:05:52;;;;;;;16.73;14.00;;;12.40;99.90;;;;;;6217806;23;20058;-88
2021/10/15 07:08:18;;;;;;;20.40;15.23;;;12.40;99.90;;;;;;6217814;23;20004;-89
2021/10/15 07:10:43;;;;;;;19.42;13.30;;;12.40;99.90;;;;;;6217329;23;20290;-85
2021/10/15 07:13:13;;;;;;;14.40;9.80;;;12.40;99.90;;;;;;6217811;23;20004;-88
2021/10/15 07:15:40;;;;;;;11.57;7.55;;;12.30;99.90;;;;;;6244403;23;20008;-88
2021/10/15 07:18:06;;;;;;;7.22;5.25;;;12.20;99.90;;;;;;6218775;23;20330;-88
2021/10/15 07:20:32;;;;;;;6.50;4.80;;;12.20;99.90;;;;;;6193240;23;20059;-88
2021/10/15 07:22:58;;;;;;;6.53;3.42;;;12.10;99.90;;;;;;6185391;23;20016;-87
2021/10/15 07:25:26;;;;;;;4.30;2.42;;;12.10;99.90;;;;;;6187518;23;20360;-88
2021/10/15 07:27:52;;;;;;;3.85;1.98;;;12.10;99.90;;;;;;6138758;23;20008;-87
2021/10/15 07:30:20;;;;;;;3.63;1.60;;;12.10;99.90;;;;;;6187509;23;20295;-88
2021/10/15 07:32:49;;;;;;;3.58;1.27;;;12.10;99.90;;;;;;6187568;23;20372;-88
2021/10/15 07:35:15;;;;;;;2.40;1.13;;;12.10;99.90;;;;;;6213717;23;19993;-88
2021/10/15 07:37:43;;;;;;;1.73;0.80;;;12.10;99.90;;;;;;6186943;23;20004;-88
2021/10/15 07:40:11;;;;;;;2.17;0.60;;;12.10;99.90;;;;;;6213707;23;20015;-88
2021/10/15 07:42:38;;;;;;;0.93;0.40;;;12.00;99.90;;;;;;6162467;23;20005;-87
2021/10/15 07:45:05;;;;;;;1.25;0.55;;;11.90;99.90;;;;;;6187469;23;20001;-88
2021/10/15 07:47:31;;;;;;;1.70;0.40;;;11.80;99.90;;;;;;6186633;23;20374;-87
2021/10/15 07:49:57;;;;;;;1.85;0.75;;;11.70;99.90;;;;;;6162900;23;20012;-88
2021/10/15 07:52:26;;;;;;;2.67;0.40;;;11.60;99.90;;;;;;6187228;23;20302;-87
2021/10/15 07:54:52;;;;;;;1.67;0.30;;;11.60;99.90;;;;;;6165339;23;20062;-88
2021/10/15 07:57:17;;;;;;;2.65;0.40;;;11.60;99.90;;;;;;6189836;23;20476;-88
2021/10/15 07:59:49;;;;;;;1.30;0.30;;;11.60;99.90;;;;;;6214159;23;20084;-87
2021/10/15 08:02:18;;;;;;;1.88;0.30;;;11.60;99.90;;;;;;6189291;23;20024;-88
2021/10/15 08:04:49;;;;;;;1.95;0.30;;;11.60;99.90;;;;;;6165449;23;19996;-87
2021/10/15 08:07:18;;;;;;;1.33;0.30;;;11.60;99.90;;;;;;6189578;23;20028;-88
2021/10/15 08:09:49;;;;;;;1.63;0.30;;;11.70;99.90;;;;;;6165178;23;20091;-88
2021/10/15 08:12:15;;;;;;;0.32;0.20;;;11.70;99.90;;;;;;6189660;23;20040;-88
2021/10/15 08:14:41;;;;;;;1.63;0.38;;;11.70;99.90;;;;;;6189827;23;20397;-88
2021/10/15 08:17:06;;;;;;;1.25;0.30;;;11.70;99.90;;;;;;6189230;23;20058;-88
2021/10/15 08:19:37;;;;;;;0.50;0.28;;;11.70;99.90;;;;;;6189768;23;20019;-89
2021/10/15 08:22:03;;;;;;;1.17;0.30;;;11.70;99.90;;;;;;6190275;23;20312;-87
2021/10/15 08:24:29;;;;;;;1.17;0.50;;;11.70;99.90;;;;;;6216271;23;20087;-87
2021/10/15 08:26:57;;;;;;;0.80;0.25;;;11.80;99.90;;;;;;6220674;23;20316;-87
2021/10/15 08:29:26;;;;;;;1.00;0.40;;;11.90;99.90;;;;;;6220421;23;20004;-88
2021/10/15 08:31:52;;;;;;;1.20;0.28;;;11.90;99.90;;;;;;6220794;23;20363;-88
2021/10/15 08:34:22;;;;;;;0.95;0.32;;;11.90;99.90;;;;;;6220225;23;20083;-87
2021/10/15 08:36:53;;;;;;;1.10;0.40;;;11.90;99.90;;;;;;6219691;23;19993;-88
2021/10/15 08:39:22;;;;;;;0.60;0.30;;;12.00;99.90;;;;;;6219997;23;20004;-87
2021/10/15 08:41:48;;;;;;;2.33;0.50;;;12.00;99.90;;;;;;6220237;23;20000;-88
2021/10/15 08:44:15;;;;;;;3.80;0.60;;;12.00;99.90;;;;;;6219351;23;20071;-87
2021/10/15 08:46:40;;;;;;;2.28;0.50;;;11.90;99.90;;;;;;6219970;23;20328;-88
2021/10/15 08:49:06;;;;;;;1.75;0.40;;;11.80;99.90;;;;;;6220097;23;20023;-87
2021/10/15 08:51:37;;;;;;;3.30;0.82;;;11.90;99.90;;;;;;6247007;23;20007;-88
2021/10/15 08:54:04;;;;;;;3.03;1.00;;;12.00;99.90;;;;;;6220577;23;20053;-88
2021/10/15 08:56:35;;;;;;;2.25;0.57;;;12.10;99.90;;;;;;6219881;23;20003;-88
2021/10/15 08:59:09;;;;;;;3.45;0.80;;;12.30;99.90;;;;;;6219195;23;20405;-88
2021/10/15 09:01:45;;;;;;;3.28;0.77;;;12.30;99.90;;;;;;6220027;23;20431;-88
2021/10/15 09:04:16;;;;;;;5.18;0.80;;;12.40;99.90;;;;;;6221440;23;20023;-88
2021/10/15 09:06:42;;;;;;;3.08;0.45;;;12.40;99.90;;;;;;6197544;23;20068;-88
2021/10/15 09:09:08;;;;;;;3.03;0.55;;;12.40;99.90;;;;;;6219871;23;19997;-88
2021/10/15 09:12:02;;;;;;;4.63;0.80;;;12.50;99.90;;;;;;6221480;23;20171;-87
2021/10/15 09:14:28;;;;;;;4.47;0.75;;;12.50;99.90;;;;;;6218483;23;20111;-88
2021/10/15 09:17:17;;;;;;;2.50;0.70;;;12.50;99.90;;;;;;6248049;23;20000;-88
2021/10/15 09:19:51;;;;;;;2.53;0.80;;;12.60;99.90;;;;;;6221334;23;20053;-87
2021/10/15 09:22:34;;;;;;;5.05;0.77;;;12.60;99.90;;;;;;6221284;23;19996;-87
2021/10/15 09:25:12;;;;;;;4.32;0.80;;;12.70;99.90;;;;;;6198377;23;20480;-87
2021/10/15 09:27:52;;;;;;;6.10;1.20;;;12.80;99.90;;;;;;6214541;23;20290;-87
2021/10/15 09:30:21;;;;;;;4.57;1.10;;;12.80;99.90;;;;;;6188812;23;20373;-88
2021/10/15 09:32:57;;;;;;;5.20;0.93;;;12.80;99.90;;;;;;6188699;23;20004;-87
2021/10/15 09:35:26;;;;;;;3.92;1.08;;;12.90;99.90;;;;;;6214926;23;20421;-89
2021/10/15 09:38:01;;;;;;;4.57;1.27;;;13.10;99.90;;;;;;6188634;23;20009;-88
2021/10/15 09:40:32;;;;;;;2.80;1.08;;;13.40;99.90;;;;;;6188474;23;19997;-88
2021/10/15 09:43:00;;;;;;;3.22;0.73;;;13.50;99.90;;;;;;6187435;23;20050;-88
2021/10/15 09:45:28;;;;;;;2.20;0.98;;;13.80;99.90;;;;;;6188318;23;20016;-88
2021/10/15 09:48:03;;;;;;;3.55;0.93;;;14.10;99.90;;;;;;6187640;23;20054;-89
2021/10/15 09:50:34;;;;;;;6.60;1.40;;;14.80;99.90;;;;;;6214557;23;20024;-89
2021/10/15 09:53:04;;;;;;;4.07;1.05;;;15.60;99.90;;;;;;6214861;23;20035;-88
2021/10/15 09:55:41;;;;;;;5.40;1.42;;;16.60;99.90;;;;;;6187802;23;20000;-88
2021/10/15 09:58:24;;;;;;;11.82;1.65;;;17.80;99.90;;;;;;6189458;23;20001;-89
2021/10/15 10:00:55;;;;;;;5.82;1.15;;;18.70;99.90;;;;;;6188155;23;20004;-89
2021/10/15 10:03:23;;;;;;;6.30;1.42;;;19.50;99.90;;;;;;6214477;23;19997;-89
2021/10/15 10:05:50;;;;;;;5.97;1.10;;;19.90;99.90;;;;;;6162543;23;20009;-90
2021/10/15 10:08:17;;;;;;;5.60;1.30;;;19.90;99.90;;;;;;6163543;23;20004;-90
2021/10/15 10:10:48;;;;;;;6.40;1.10;;;19.20;99.90;;;;;;6214790;23;20059;-89
2021/10/15 10:13:15;;;;;;;5.13;1.35;;;18.90;99.90;;;;;;6187492;23;20016;-88
2021/10/15 10:15:43;;;;;;;6.35;1.30;;;19.20;99.90;;;;;;6187705;23;20001;-88
2021/10/15 10:18:33;;;;;;;4.63;1.20;;;18.90;99.90;;;;;;6162947;23;20217;-89
2021/10/15 10:21:18;;;;;;;4.57;1.00;;;19.70;99.90;;;;;;6187868;23;20324;-88
2021/10/15 10:24:00;;;;;;;4.65;1.23;;;19.60;99.90;;;;;;6194147;23;21097;-88
2021/10/15 10:26:25;;;;;;;5.80;1.02;;;18.70;99.90;;;;;;6217859;23;20420;-89
2021/10/15 10:29:02;;;;;;;3.90;0.80;;;18.10;99.90;;;;;;6217773;23;20003;-88
2021/10/15 10:31:30;;;;;;;4.55;1.10;;;18.50;99.90;;;;;;6217890;23;20050;-89
2021/10/15 10:34:00;;;;;;;4.47;1.27;;;19.50;99.90;;;;;;6216029;23;20012;-89
2021/10/15 10:36:28;;;;;;;5.28;0.93;;;20.50;99.90;;;;;;6192731;23;20433;-89
2021/10/15 10:38:55;;;;;;;6.78;1.27;;;21.10;99.90;;;;;;6217278;23;19992;-90
2021/10/15 10:41:24;;;;;;;3.88;0.90;;;21.60;99.90;;;;;;6217732;23;19996;-90
2021/10/15 10:43:53;;;;;;;5.90;1.00;;;22.20;99.90;;;;;;6217743;23;19996;-90
2021/10/15 10:46:29;;;;;;;7.15;1.08;;;22.90;99.90;;;;;;6217689;23;20003;-88
2021/10/15 10:48:58;;;;;;;4.93;1.27;;;23.20;99.90;;;;;;6221194;23;20007;-90
2021/10/15 10:51:24;;;;;;;5.75;0.98;;;22.90;99.90;;;;;;6244564;23;20000;-89
2021/10/15 10:54:08;;;;;;;4.47;0.90;;;22.90;99.90;;;;;;6218136;23;20035;-89
2021/10/15 10:56:44;;;;;;;7.22;1.15;;;22.80;99.90;;;;;;6218298;23;20051;-89
2021/10/15 10:59:22;;;;;;;3.80;0.73;;;22.70;99.90;;;;;;6218809;23;20016;-89
2021/10/15 11:02:03;;;;;;;9.18;1.00;;;23.10;99.90;;;;;;6244977;23;20007;-87
2021/10/15 11:04:30;;;;;;;4.70;1.20;;;23.30;99.90;;;;;;6217920;23;20006;-88
2021/10/15 11:07:07;;;;;;;4.68;0.93;;;23.50;99.90;;;;;;6217825;23;20023;-89
2021/10/15 11:13:32;;;;;;;7.38;1.08;;;24.10;99.90;;;;;;6097284;23;20034;-88
2021/10/15 11:16:24;;;;;;;6.55;1.00;;;23.80;99.90;;;;;;6219398;23;20024;-89
2021/10/15 11:18:54;;;;;;;5.03;1.10;;;23.00;99.90;;;;;;6244744;23;20392;-89
2021/10/15 11:21:20;;;;;;;4.38;1.10;;;22.20;99.90;;;;;;6218064;23;20019;-90
2021/10/15 11:23:53;;;;;;;3.92;0.90;;;22.60;99.90;;;;;;6244469;23;20012;-90
2021/10/15 11:26:34;;;;;;;4.32;0.80;;;23.70;99.90;;;;;;6218269;23;19992;-90
2021/10/15 11:29:00;;;;;;;3.58;0.90;;;23.70;99.90;;;;;;6247162;23;20424;-90
2021/10/15 11:31:28;;;;;;;3.00;0.85;;;22.60;99.90;;;;;;6246268;23;20000;-89
2021/10/15 11:33:57;;;;;;;5.10;1.05;;;21.40;99.90;;;;;;6219932;23;20004;-90
2021/10/15 11:36:28;;;;;;;2.47;0.75;;;20.40;99.90;;;;;;6195427;23;20087;-90
2021/10/15 11:39:02;;;;;;;3.20;0.65;;;19.60;99.90;;;;;;6219713;23;20392;-88
2021/10/15 11:41:29;;;;;;;3.55;0.90;;;18.90;99.90;;;;;;6219677;23;20011;-87
2021/10/15 11:43:58;;;;;;;2.63;0.65;;;18.50;99.90;;;;;;6244809;23;20333;-87
2021/10/15 11:46:31;;;;;;;4.63;1.00;;;19.90;99.90;;;;;;6219400;23;20004;-87
2021/10/15 11:48:57;;;;;;;5.18;1.10;;;21.40;99.90;;;;;;6194917;23;20004;-88
2021/10/15 11:51:29;;;;;;;4.80;0.88;;;21.80;99.90;;;;;;6219980;23;20327;-88
2021/10/15 11:54:00;;;;;;;2.60;0.70;;;21.40;99.90;;;;;;6221409;23;20004;-88
2021/10/15 11:56:30;;;;;;;2.35;0.60;;;20.50;99.90;;;;;;6221641;23;20001;-88
2021/10/15 11:59:00;;;;;;;3.67;0.65;;;19.60;99.90;;;;;;6223171;23;20087;-87
2021/10/15 12:01:32;;;;;;;5.93;1.00;;;19.10;99.90;;;;;;6248680;23;20001;-89
2021/10/15 12:04:00;;;;;;;4.88;0.85;;;19.90;99.90;;;;;;6221930;23;20050;-89
2021/10/15 12:06:40;;;;;;;4.63;1.00;;;20.10;99.90;;;;;;6219644;23;20004;-89
2021/10/15 12:09:12;;;;;;;2.85;0.90;;;20.90;99.90;;;;;;6219456;23;20004;-87
2021/10/15 12:11:51;;;;;;;4.20;0.80;;;22.20;99.90;;;;;;6219894;23;20004;-88
2021/10/15 12:14:34;;;;;;;3.33;0.73;;;23.20;99.90;;;;;;6245356;23;20301;-87
2021/10/15 12:17:08;;;;;;;6.28;0.80;;;24.00;99.90;;;;;;6218171;23;19996;-88
2021/10/15 12:19:58;;;;;;;5.13;0.90;;;24.40;99.90;;;;;;6193986;23;20527;-88
2021/10/15 12:22:28;;;;;;;4.95;1.33;;;24.50;99.80;;;;;;6246643;23;19999;-88
2021/10/15 12:25:01;;;;;;;5.00;1.17;;;23.50;98.90;;;;;;6219121;23;20019;-87
2021/10/15 12:27:46;;;;;;;5.53;1.30;;;22.10;99.50;;;;;;6195313;23;20065;-89
2021/10/15 12:30:20;;;;;;;3.90;1.25;;;20.50;99.90;;;;;;6220679;23;20007;-88
2021/10/15 12:32:46;;;;;;;6.25;1.70;;;19.30;99.90;;;;;;6217860;23;20004;-87
2021/10/15 12:35:22;;;;;;;6.35;1.60;;;18.40;99.90;;;;;;6194464;23;20000;-87
2021/10/15 12:38:04;;;;;;;6.28;1.40;;;17.60;99.90;;;;;;6221349;23;20000;-88
2021/10/15 12:40:40;;;;;;;3.95;1.20;;;17.10;99.90;;;;;;6221470;23;19998;-87
2021/10/15 12:43:09;;;;;;;5.50;1.30;;;16.80;99.90;;;;;;6220471;23;20004;-87
2021/10/15 12:49:16;;;;;;;4.85;1.05;;;17.00;99.90;;;;;;6231485;23;20427;-87
2021/10/15 12:51:43;;;;;;;5.30;1.35;;;18.70;99.90;;;;;;6220894;23;20000;-86
2021/10/15 12:54:14;;;;;;;7.45;1.60;;;20.20;99.90;;;;;;6196864;23;20004;-88
2021/10/15 12:56:42;;;;;;;8.07;1.83;;;21.40;99.90;;;;;;6196621;23;20079;-87
2021/10/15 12:59:18;;;;;;;6.35;1.75;;;22.00;97.50;;;;;;6221470;23;19996;-89
2021/10/15 13:01:46;;;;;;;8.30;1.88;;;22.50;97.00;;;;;;6220077;23;20091;-89
2021/10/15 13:04:22;;;;;;;7.95;1.70;;;23.00;96.10;;;;;;6243787;23;20026;-88
2021/10/15 13:06:47;;;;;;;8.05;1.40;;;23.30;95.50;;;;;;6219722;23;19996;-87
2021/10/15 13:09:14;;;;;;;6.50;1.52;;;23.50;94.50;;;;;;6219192;23;20058;-88
2021/10/15 13:11:45;;;;;;;7.60;1.30;;;23.50;94.30;;;;;;6243256;23;20152;-89